• Join FlightAware (Why Join?)
  • Login
  • US Flag 
12:27AM EDT


 

Airport Tracker/Info


-or-


 

Live Flight TrackerFlight Track Log ✈ THY2481 ✈ 10-Jul-2013 ✈ LTAF / ADA - LTBA / IST

Flight Track Log - Related Links

Times and Time Zones

All times are in EDT time to prevent confusion due to time zone crossing. See the THY2481 flight status page for this flight to view local times or setup timezone preferences in your user account.

Time Position Orientation Groundspeed Altitude Reporting Facility
EDT Latitude Longitude Course Direction KTS MPH feet Rate Location/Type
05:47AM 37.5156 34.4892 311° West  Level Estimated
05:48AM 37.5745 34.4006 310° West  Level Estimated
05:49AM 37.6334 34.3119 310° West  Level Estimated
05:50AM 37.6922 34.2230 310° West  Level Estimated
05:51AM 37.7510 34.1340 310° West  Level Estimated
05:52AM 37.8096 34.0448 310° West  Level Estimated
05:53AM 37.8683 33.9555 310° West  Level Estimated
05:54AM 37.9268 33.8660 310° West  Level Estimated
05:55AM 37.9853 33.7764 310° West  Level Estimated
05:56AM 38.0437 33.6867 310° West  Level Estimated
05:57AM 38.1020 33.5968 310° West  Level Estimated
05:58AM 38.1603 33.5068 309° West  Level Estimated
05:59AM 38.2185 33.4166 309° West  Level Estimated
06:00AM 38.2766 33.3263 309° West  Level Estimated
06:01AM 38.3347 33.2359 309° West  Level Estimated
06:02AM 38.3927 33.1453 309° West  Level Estimated
06:03AM 38.4506 33.0545 309° West  Level Estimated
06:04AM 38.5084 32.9636 309° West  Level Estimated
06:05AM 38.5662 32.8726 309° West  Level Estimated
06:06AM 38.6239 32.7814 309° West  Level Estimated
06:07AM 38.6815 32.6901 309° West  Level Estimated
06:08AM 38.7391 32.5986 309° West  Level Estimated
06:09AM 38.7966 32.5070 309° West  Level Estimated
06:10AM 38.8540 32.4152 309° West  Level Estimated
06:11AM 38.9114 32.3233 309° West  Level Estimated
06:12AM 38.9687 32.2312 309° West  Level Estimated
06:13AM 39.0259 32.1390 309° West  Level Estimated
06:14AM 39.0830 32.0466 309° West  Level Estimated
06:15AM 39.1401 31.9541 309° West  Level Estimated
06:16AM 39.1971 31.8614 308° West  Level Estimated
06:17AM 39.2540 31.7686 308° West  Level Estimated
06:18AM 39.3108 31.6756 308° West  Level Estimated
06:19AM 39.3676 31.5825 308° West  Level Estimated
06:20AM 39.4243 31.4893 308° West  Level Estimated
06:21AM 39.4809 31.3958 308° West  Level Estimated
06:22AM 39.5375 31.3022 308° West  Level Estimated
06:23AM 39.5939 31.2085 308° West  Level Estimated
06:24AM 39.6503 31.1146 308° West  Level Estimated
06:25AM 39.7066 31.0206 308° West  Level Estimated
06:26AM 39.7629 30.9264 308° West  Level Estimated
06:27AM 39.8190 30.8321 308° West  Level Estimated
06:28AM 39.8751 30.7376 308° West  Level Estimated
06:29AM 39.9311 30.6429 308° West  Level Estimated
06:30AM 39.9871 30.5481 308° West  Level Estimated
06:31AM 40.0429 30.4532 308° West  Level Estimated
06:32AM 40.0987 30.3580 307° West  Level Estimated
06:33AM 40.1544 30.2628 307° West  Level Estimated
06:34AM 40.2100 30.1674 307° West  Level Estimated
06:35AM 40.2656 30.0718 307° West  Level Estimated
06:36AM 40.3211 29.9760 307° West  Level Estimated
06:37AM 40.3765 29.8801 307° West  Level Estimated
06:38AM 40.4318 29.7841 307° West  Level Estimated
06:39AM 40.4870 29.6879 307° West  Level Estimated
06:40AM 40.5421 29.5915 307° West  Level Estimated
06:41AM 40.5972 29.4950 307° West  Level Estimated
06:42AM 40.6522 29.3983 307° West  Level Estimated
06:43AM 40.7071 29.3014 307° West  Level Estimated
06:44AM 40.7620 29.2044 307° West  Level Estimated
06:45AM 40.8167 29.1072 307° West  Level Estimated
06:46AM 40.8713 29.0099 307° West  Level Estimated
06:47AM 40.9259 28.9124 307° West  Level Estimated
06:48AM 40.9769 28.8211 306° West  Level Estimated
06:49AM 40.9769 28.8211 21° North  Level Estimated
06:50AM 40.9769 28.8211 21° North  Level Estimated
06:51AM 40.9769 28.8211 21° North  Level Estimated
06:52AM 40.9769 28.8211 21° North  Level Estimated
06:53AM 40.9769 28.8211 21° North  Level Estimated
06:54AM 40.9769 28.8211 21° North  Level Estimated
06:55AM 40.9769 28.8211 21° North  Level Estimated
06:56AM 40.9769 28.8211 21° North  Level Estimated
06:57AM 40.9769 28.8211 21° North  Level Estimated
06:58AM 40.9769 28.8211 21° North  Level Estimated
06:59AM 40.9769 28.8211 21° North  Level Estimated
07:00AM 40.9769 28.8211 21° North  Level Estimated
07:01AM 40.9769 28.8211 21° North  Level Estimated
07:02AM 40.9769 28.8211 21° North  Level Estimated
07:03AM 40.9769 28.8211 21° North  Level Estimated
07:04AM 40.9769 28.8211 21° North  Level Estimated